Time;durP1;ratioP1;P1;durP2;ratioP2;P2;SDS_P1;SDS_P2;PMS_P1;PMS_P2;Temp;Humidity;BMP_temperature;BMP_pressure;BME280_temperature;BME280_humidity;BME280_pressure;Samples;Min_cycle;Max_cycle;Signal;HPM_P1;HPM_P2
2023/05/10 00:00:27;;;;;;;13.97;12.50;;;;;;;15.18;100.00;100746.69;5314896;28;20050;-71
2023/05/10 00:02:58;;;;;;;13.83;12.20;;;;;;;15.23;100.00;100754.22;5292669;28;20833;-70
2023/05/10 00:05:31;;;;;;;14.73;13.23;;;;;;;15.21;100.00;100757.00;5316981;28;20027;-71
2023/05/10 00:08:02;;;;;;;15.57;13.73;;;;;;;15.12;100.00;100749.81;5317499;28;20126;-70
2023/05/10 00:10:33;;;;;;;14.30;12.17;;;;;;;15.12;100.00;100753.31;5297342;28;20134;-71
2023/05/10 00:13:05;;;;;;;14.17;12.70;;;;;;;15.11;100.00;100750.78;5295295;28;20074;-72
2023/05/10 00:15:36;;;;;;;15.70;14.13;;;;;;;15.17;100.00;100755.56;5278111;28;20423;-72
2023/05/10 00:18:07;;;;;;;15.43;13.83;;;;;;;15.09;100.00;100752.72;5278188;28;20440;-70
2023/05/10 00:20:39;;;;;;;17.60;14.40;;;;;;;14.86;100.00;100715.84;5289275;28;20032;-71
2023/05/10 00:23:10;;;;;;;16.90;15.20;;;;;;;15.12;100.00;100761.22;5296267;28;20346;-70
2023/05/10 00:25:41;;;;;;;16.67;14.83;;;;;;;15.08;100.00;100751.88;5277497;28;20027;-71
2023/05/10 00:28:12;;;;;;;18.53;16.63;;;;;;;15.06;100.00;100747.69;5313945;28;20028;-70
2023/05/10 00:30:44;;;;;;;17.67;15.87;;;;;;;15.02;100.00;100747.09;5298961;28;20478;-70
2023/05/10 00:33:15;;;;;;;20.67;17.50;;;;;;;14.98;100.00;100748.28;5316858;28;20543;-71
2023/05/10 00:35:46;;;;;;;21.00;18.43;;;;;;;15.02;100.00;100757.66;5315929;28;20024;-71
2023/05/10 00:38:18;;;;;;;21.07;18.97;;;;;;;14.90;100.00;100751.56;5315422;28;20035;-71
2023/05/10 00:40:49;;;;;;;20.13;17.87;;;;;;;14.94;100.00;100750.34;5316346;28;20042;-70
2023/05/10 00:43:20;;;;;;;23.20;20.87;;;;;;;14.93;100.00;100751.31;5298510;28;20027;-71
2023/05/10 00:45:52;;;;;;;22.03;18.80;;;;;;;14.91;100.00;100744.47;5298044;28;20059;-70
2023/05/10 00:48:24;;;;;;;22.70;19.53;;;;;;;14.93;100.00;100753.94;5316937;28;20358;-71
2023/05/10 00:50:55;;;;;;;22.53;20.13;;;;;;;15.04;100.00;100749.59;5315352;28;20052;-71
2023/05/10 00:53:27;;;;;;;22.77;19.80;;;;;;;15.04;100.00;100753.09;5316680;28;20034;-71
2023/05/10 00:55:59;;;;;;;23.10;20.67;;;;;;;14.97;100.00;100750.13;5300292;28;20039;-72
2023/05/10 00:58:30;;;;;;;24.10;20.83;;;;;;;14.92;100.00;100747.00;5312073;28;20042;-71
2023/05/10 01:01:02;;;;;;;24.50;21.03;;;;;;;14.99;100.00;100742.06;5294941;28;20040;-71
2023/05/10 01:03:33;;;;;;;25.43;22.73;;;;;;;15.04;100.00;100744.34;5294810;28;20028;-71
2023/05/10 01:06:05;;;;;;;27.10;21.07;;;;;;;15.07;100.00;100744.06;5295052;28;20020;-73
2023/05/10 01:08:36;;;;;;;26.20;22.23;;;;;;;15.02;100.00;100746.25;5316830;28;20027;-72
2023/05/10 01:11:08;;;;;;;28.27;24.40;;;;;;;14.92;100.00;100736.47;5329272;22;20049;-84
2023/05/10 01:13:45;;;;;;;33.37;26.43;;;;;;;14.92;100.00;100730.34;5277191;28;20040;-84
2023/05/10 01:16:17;;;;;;;33.20;29.47;;;;;;;14.78;100.00;100723.50;5294589;28;20114;-85
2023/05/10 01:18:50;;;;;;;37.67;29.37;;;;;;;14.71;100.00;100705.56;5296971;28;20110;-85
2023/05/10 01:21:50;;;;;;;38.17;31.30;;;;;;;15.00;100.00;100733.19;5297032;28;20890;-86
2023/05/10 01:24:53;;;;;;;37.87;31.70;;;;;;;14.95;100.00;100699.28;5297698;28;20054;-85
2023/05/10 01:27:49;;;;;;;51.67;38.67;;;;;;;15.23;100.00;100747.16;5296688;28;20023;-85
2023/05/10 01:30:32;;;;;;;46.87;36.77;;;;;;;15.06;100.00;100716.03;5296764;28;20032;-85
2023/05/10 01:33:10;;;;;;;49.67;38.50;;;;;;;15.11;100.00;100737.59;5297835;28;20032;-85
2023/05/10 01:35:45;;;;;;;44.37;37.00;;;;;;;14.93;100.00;100738.13;5295765;28;20028;-85
2023/05/10 01:38:50;;;;;;;50.17;38.87;;;;;;;15.00;100.00;100699.75;5298100;28;20069;-85
2023/05/10 01:41:41;;;;;;;50.40;38.10;;;;;;;14.98;100.00;100743.88;5272114;28;20120;-83
2023/05/10 01:44:29;;;;;;;48.20;36.37;;;;;;;14.96;100.00;100722.03;5278214;28;20029;-83
2023/05/10 01:47:10;;;;;;;46.70;38.67;;;;;;;15.10;100.00;100746.47;5298062;28;20030;-83
2023/05/10 01:49:47;;;;;;;48.10;36.93;;;;;;;14.76;100.00;100695.47;5299410;28;20380;-84
2023/05/10 01:52:32;;;;;;;51.57;39.47;;;;;;;15.02;100.00;100740.97;5301909;28;20024;-83
2023/05/10 01:55:18;;;;;;;46.60;37.63;;;;;;;14.89;100.00;100715.59;5300503;28;20032;-83
2023/05/10 01:57:58;;;;;;;47.97;38.73;;;;;;;14.72;100.00;100704.56;5301269;28;20051;-82
2023/05/10 02:00:31;;;;;;;47.03;38.33;;;;;;;14.79;100.00;100722.53;5301414;28;20076;-83
2023/05/10 02:03:06;;;;;;;47.67;38.47;;;;;;;15.04;100.00;100752.25;5300229;28;20387;-83
2023/05/10 02:05:42;;;;;;;49.57;39.40;;;;;;;14.61;100.00;100705.44;5300863;28;20056;-83
2023/05/10 02:08:21;;;;;;;49.90;40.53;;;;;;;14.94;100.00;100734.50;5300159;28;20027;-82
2023/05/10 02:10:55;;;;;;;52.27;39.50;;;;;;;14.73;100.00;100719.44;5302424;28;20051;-83
2023/05/10 02:13:33;;;;;;;53.72;40.65;;;;;;;14.68;100.00;100708.41;5300694;28;20043;-83
2023/05/10 02:16:13;;;;;;;48.53;41.00;;;;;;;14.81;100.00;100712.72;5299523;28;20059;-83
2023/05/10 02:18:46;;;;;;;54.73;43.00;;;;;;;14.82;100.00;100731.06;5299592;28;20467;-82
2023/05/10 02:21:22;;;;;;;62.67;47.70;;;;;;;14.97;100.00;100738.72;5301420;28;20028;-83
2023/05/10 02:23:57;;;;;;;58.87;47.53;;;;;;;14.77;100.00;100749.03;5299920;28;20343;-82
2023/05/10 02:26:30;;;;;;;59.83;48.10;;;;;;;14.56;100.00;100715.50;5299577;28;20036;-82
2023/05/10 02:29:07;;;;;;;66.30;49.00;;;;;;;14.79;100.00;100751.53;5299969;28;20111;-82
2023/05/10 02:31:39;;;;;;;61.27;50.00;;;;;;;14.78;100.00;100747.22;5300495;28;20024;-82
2023/05/10 02:34:11;;;;;;;64.97;51.77;;;;;;;14.82;100.00;100756.63;5298649;28;20111;-81
2023/05/10 02:36:43;;;;;;;60.40;50.03;;;;;;;14.88;100.00;100771.94;5299699;28;20456;-82
2023/05/10 02:39:18;;;;;;;64.00;51.37;;;;;;;14.74;100.00;100746.63;5301161;28;20060;-82
2023/05/10 02:41:50;;;;;;;;;;;;;;;15.43;100.00;100776.34;5299699;28;20027;-82
2023/05/10 02:44:23;;;;;;;64.23;48.40;;;;;;;14.76;100.00;100752.63;5299785;28;19908;-82
2023/05/10 02:47:17;;;;;;;58.50;49.43;;;;;;;14.87;100.00;100738.63;5300725;28;20492;-82
2023/05/10 02:49:51;;;;;;;60.47;51.03;;;;;;;14.54;100.00;100717.41;5298560;28;20024;-82
2023/05/10 02:52:27;;;;;;;57.17;47.67;;;;;;;14.89;100.00;100768.31;5300818;28;20047;-82
2023/05/10 02:55:02;;;;;;;61.90;49.80;;;;;;;14.42;100.00;100708.69;5299508;28;20081;-82
2023/05/10 02:57:38;;;;;;;62.97;48.57;;;;;;;14.73;100.00;100763.41;5300777;28;20650;-83
2023/05/10 03:00:12;;;;;;;59.57;47.63;;;;;;;14.42;100.00;100734.22;5298031;28;20066;-82
2023/05/10 03:02:44;;;;;;;54.38;45.08;;;;;;;14.64;100.00;100763.16;5298762;28;20016;-82
2023/05/10 03:05:15;;;;;;;56.07;46.97;;;;;;;14.52;100.00;100735.97;5299830;28;20088;-83
2023/05/10 03:07:47;;;;;;;52.43;44.53;;;;;;;14.47;100.00;100743.41;5298383;28;20189;-82
2023/05/10 03:10:27;;;;;;;56.50;44.03;;;;;;;14.64;100.00;100767.63;5300069;28;20032;-83
2023/05/10 03:13:04;;;;;;;53.77;43.87;;;;;;;14.83;100.00;100782.84;5300351;28;20467;-84
2023/05/10 03:16:03;;;;;;;55.63;42.27;;;;;;;14.73;100.00;100743.16;5300410;28;20028;-83
2023/05/10 03:19:03;;;;;;;47.97;40.90;;;;;;;14.66;100.00;100730.59;5300147;28;20016;-83
2023/05/10 03:21:39;;;;;;;49.60;41.20;;;;;;;14.61;100.00;100754.66;5260294;28;20040;-83
2023/05/10 03:24:15;;;;;;;48.77;40.77;;;;;;;14.65;100.00;100769.28;5279284;28;20437;-83
2023/05/10 03:26:48;;;;;;;43.90;39.20;;;;;;;14.42;100.00;100724.50;5278543;28;20602;-82
2023/05/10 03:29:21;;;;;;;46.67;38.20;;;;;;;14.56;100.00;100755.03;5289411;28;20108;-82
2023/05/10 03:31:53;;;;;;;43.50;37.60;;;;;;;14.40;100.00;100739.56;5298319;28;20519;-84
2023/05/10 03:34:25;;;;;;;43.93;35.70;;;;;;;14.61;100.00;100768.69;5299361;28;20035;-84
2023/05/10 03:36:57;;;;;;;44.27;38.13;;;;;;;14.72;100.00;100793.34;5298221;28;20111;-84
2023/05/10 03:39:28;;;;;;;45.70;37.57;;;;;;;14.65;100.00;100782.47;5300162;28;20031;-83
2023/05/10 03:41:59;;;;;;;42.37;36.57;;;;;;;14.51;100.00;100759.81;5298640;28;20031;-83
2023/05/10 03:44:33;;;;;;;47.80;36.43;;;;;;;14.51;100.00;100755.41;5298091;28;20437;-83
2023/05/10 03:47:05;;;;;;;44.10;36.10;;;;;;;14.67;100.00;100775.28;5299455;28;20115;-82
2023/05/10 03:49:37;;;;;;;47.63;36.27;;;;;;;14.50;100.00;100761.59;5296851;28;20032;-83
2023/05/10 03:52:08;;;;;;;49.07;36.70;;;;;;;14.56;100.00;100772.63;5299154;28;20442;-83
2023/05/10 03:54:40;;;;;;;46.80;36.90;;;;;;;14.80;100.00;100798.03;5297627;28;20490;-81
2023/05/10 03:57:18;;;;;;;48.50;37.73;;;;;;;14.42;100.00;100745.56;5298323;28;20020;-81
2023/05/10 03:59:50;;;;;;;44.27;36.03;;;;;;;14.48;100.00;100760.91;5297245;28;20024;-81
2023/05/10 04:02:21;;;;;;;53.80;39.23;;;;;;;14.38;100.00;100754.69;5299228;28;20497;-82
2023/05/10 04:04:53;;;;;;;48.47;38.17;;;;;;;14.42;100.00;100779.81;5298428;28;20080;-81
2023/05/10 04:07:24;;;;;;;56.37;41.23;;;;;;;14.57;100.00;100811.22;5297875;28;20181;-82
2023/05/10 04:09:56;;;;;;;60.73;43.73;;;;;;;14.28;100.00;100768.56;5299043;28;20062;-82
2023/05/10 04:12:27;;;;;;;65.37;45.57;;;;;;;14.41;100.00;100780.78;5297269;28;20016;-81
2023/05/10 04:14:58;;;;;;;72.23;50.67;;;;;;;14.32;100.00;100790.25;5304158;28;20066;-81
2023/05/10 04:17:31;;;;;;;80.10;57.37;;;;;;;14.25;100.00;100781.97;5315312;28;20028;-81
2023/05/10 04:20:03;;;;;;;89.50;62.57;;;;;;;14.35;100.00;100797.91;5297294;28;20028;-81
2023/05/10 04:22:34;;;;;;;88.80;59.67;;;;;;;14.40;100.00;100808.06;5299353;28;20437;-82
2023/05/10 04:25:11;;;;;;;86.33;58.67;;;;;;;14.35;100.00;100783.88;5298182;28;20037;-81
2023/05/10 04:27:42;;;;;;;92.60;60.60;;;;;;;14.38;100.00;100802.94;5298536;28;20411;-82
2023/05/10 04:30:13;;;;;;;89.47;60.10;;;;;;;14.09;100.00;100763.00;5297355;28;20024;-82
2023/05/10 04:32:45;;;;;;;69.57;49.37;;;;;;;14.08;100.00;100759.56;5298263;28;20020;-82
2023/05/10 04:35:16;;;;;;;70.50;46.60;;;;;;;14.38;100.00;100818.72;5297916;28;20031;-82
2023/05/10 04:37:48;;;;;;;65.40;47.10;;;;;;;14.11;100.00;100769.00;5297892;28;20108;-82
2023/05/10 04:40:19;;;;;;;56.70;39.33;;;;;;;14.43;100.00;100815.75;5298315;28;20027;-82
2023/05/10 04:42:51;;;;;;;49.97;37.40;;;;;;;14.41;100.00;100820.31;5298155;28;20028;-84
2023/05/10 04:45:22;;;;;;;48.90;35.77;;;;;;;14.24;100.00;100792.63;5299130;28;20095;-83
2023/05/10 04:47:54;;;;;;;44.90;34.23;;;;;;;14.21;100.00;100804.22;5298112;28;20027;-85
2023/05/10 04:50:25;;;;;;;46.20;33.70;;;;;;;14.06;100.00;100776.41;5281704;28;20632;-82
2023/05/10 04:52:57;;;;;;;40.57;31.40;;;;;;;14.04;100.00;100776.53;5281807;28;20090;-83
2023/05/10 04:55:28;;;;;;;42.73;30.63;;;;;;;14.19;100.00;100787.69;5297218;28;20020;-82
2023/05/10 04:58:00;;;;;;;35.80;29.57;;;;;;;14.43;100.00;100828.94;5297637;28;20027;-83
2023/05/10 05:00:33;;;;;;;36.17;30.20;;;;;;;14.38;100.00;100817.91;5298023;28;20491;-82
2023/05/10 05:03:05;;;;;;;36.07;28.97;;;;;;;14.17;100.00;100784.34;5281602;28;20044;-83
2023/05/10 05:05:39;;;;;;;35.67;27.33;;;;;;;14.15;100.00;100778.38;5276510;28;20133;-83
2023/05/10 05:08:10;;;;;;;35.95;27.90;;;;;;;14.38;100.00;100820.56;5280548;28;20016;-82
2023/05/10 05:10:42;;;;;;;35.87;27.23;;;;;;;14.02;100.00;100766.13;5296145;28;20051;-82
2023/05/10 05:13:13;;;;;;;32.77;26.77;;;;;;;14.28;100.00;100802.81;5298512;28;20107;-83
2023/05/10 05:15:47;;;;;;;30.90;27.07;;;;;;;14.35;100.00;100802.31;5298472;28;20035;-84
2023/05/10 05:18:18;;;;;;;34.92;27.73;;;;;;;14.30;100.00;100810.59;5297363;28;20024;-83
2023/05/10 05:20:50;;;;;;;33.93;27.47;;;;;;;14.35;100.00;100818.13;5297863;28;20554;-83
2023/05/10 05:23:24;;;;;;;33.13;25.53;;;;;;;14.22;100.00;100797.16;5307901;28;20467;-83
2023/05/10 05:25:55;;;;;;;32.55;27.73;;;;;;;14.24;100.00;100817.16;5299482;28;20020;-83
2023/05/10 05:28:32;;;;;;;33.03;27.57;;;;;;;14.21;100.00;100822.66;5297900;28;20080;-83
2023/05/10 05:31:05;;;;;;;32.50;28.30;;;;;;;14.24;100.00;100817.16;5297734;28;20024;-84
2023/05/10 05:33:37;;;;;;;29.87;26.40;;;;;;;14.09;100.00;100792.84;5297119;28;20024;-83
2023/05/10 05:36:08;;;;;;;34.60;27.17;;;;;;;14.05;100.00;100798.44;5296566;28;20016;-83
2023/05/10 05:38:40;;;;;;;37.80;29.27;;;;;;;14.13;100.00;100815.34;5296293;28;20016;-83
2023/05/10 05:41:11;;;;;;;35.57;29.20;;;;;;;14.14;100.00;100808.28;5296435;28;20105;-82
2023/05/10 05:43:45;;;;;;;31.40;26.23;;;;;;;14.24;100.00;100822.41;5298229;28;20024;-82
2023/05/10 05:46:23;;;;;;;34.53;27.63;;;;;;;14.40;100.00;100816.81;5297641;28;20028;-82
2023/05/10 05:48:55;;;;;;;36.27;27.00;;;;;;;14.27;100.00;100816.09;5297145;28;20020;-82
2023/05/10 05:51:26;;;;;;;34.87;27.83;;;;;;;14.29;100.00;100814.19;5297553;28;20016;-82
2023/05/10 05:53:58;;;;;;;32.30;26.77;;;;;;;14.56;100.00;100820.91;5297237;28;20076;-81
2023/05/10 05:56:31;;;;;;;31.20;26.70;;;;;;;14.60;100.00;100832.06;5297372;28;20106;-82
2023/05/10 05:59:03;;;;;;;28.23;24.30;;;;;;;14.30;100.00;100812.38;5296668;28;20038;-81
2023/05/10 06:01:35;;;;;;;30.67;25.50;;;;;;;14.48;100.00;100842.59;5295891;28;20480;-80
2023/05/10 06:04:09;;;;;;;32.40;27.10;;;;;;;14.46;100.00;100827.84;5295163;28;20028;-82
2023/05/10 06:06:40;;;;;;;28.13;24.80;;;;;;;14.70;100.00;100858.53;5294729;28;20089;-82
2023/05/10 06:09:12;;;;;;;29.47;26.20;;;;;;;14.49;100.00;100856.59;5296474;28;20028;-82
2023/05/10 06:11:43;;;;;;;33.53;27.00;;;;;;;14.57;100.00;100848.13;5292186;28;20036;-81
2023/05/10 06:14:14;;;;;;;32.47;27.20;;;;;;;14.52;100.00;100849.28;5283125;28;20027;-81
2023/05/10 06:16:46;;;;;;;36.13;29.63;;;;;;;14.75;100.00;100886.22;5294608;28;20028;-81
2023/05/10 06:19:18;;;;;;;34.00;27.20;;;;;;;14.50;100.00;100842.47;5292053;28;20024;-80
2023/05/10 06:21:52;;;;;;;33.43;27.57;;;;;;;14.86;100.00;100879.31;5295968;28;20055;-81
2023/05/10 06:24:26;;;;;;;33.13;27.88;;;;;;;14.72;100.00;100867.16;5295964;28;20028;-82
2023/05/10 06:26:59;;;;;;;35.37;25.77;;;;;;;14.87;100.00;100886.28;5289137;28;20035;-80
2023/05/10 06:29:31;;;;;;;37.27;27.43;;;;;;;14.78;100.00;100879.88;5295112;28;20035;-82
2023/05/10 06:32:03;;;;;;;32.77;28.87;;;;;;;14.74;100.00;100859.97;5295549;28;20016;-82
2023/05/10 06:34:34;;;;;;;32.57;27.50;;;;;;;14.76;100.00;100869.47;5295495;28;20844;-83
2023/05/10 06:37:05;;;;;;;35.00;27.87;;;;;;;14.64;100.00;100854.59;5300090;28;20028;-83
2023/05/10 06:39:40;;;;;;;35.47;28.53;;;;;;;14.75;100.00;100856.38;5300657;28;20028;-82
2023/05/10 06:42:11;;;;;;;;;;;;;;;15.53;100.00;100902.28;5302065;28;20429;-83
2023/05/10 06:44:43;;;;;;;38.57;28.93;;;;;;;14.82;100.00;100862.06;5278210;28;19924;-82
2023/05/10 06:47:17;;;;;;;35.20;27.40;;;;;;;15.12;100.00;100906.28;5246101;28;20556;-81
2023/05/10 06:49:51;;;;;;;32.88;27.35;;;;;;;15.02;100.00;100883.38;5285180;28;20020;-81
2023/05/10 06:52:23;;;;;;;32.67;27.38;;;;;;;14.94;100.00;100882.19;5266583;28;20052;-82
2023/05/10 06:54:54;;;;;;;33.20;29.03;;;;;;;15.08;100.00;100904.03;5291755;28;20085;-81
2023/05/10 06:57:30;;;;;;;32.20;28.13;;;;;;;15.02;100.00;100894.78;5288442;28;20036;-81
2023/05/10 07:00:04;;;;;;;30.57;27.10;;;;;;;15.05;100.00;100917.44;5292113;28;20020;-81
2023/05/10 07:02:35;;;;;;;35.33;29.40;;;;;;;14.86;100.00;100879.31;5291338;28;20032;-81
2023/05/10 07:05:07;;;;;;;40.33;28.50;;;;;;;14.92;100.00;100876.22;5289466;28;20047;-79
2023/05/10 07:07:39;;;;;;;33.23;27.93;;;;;;;15.06;100.00;100900.66;5289547;28;20015;-79
2023/05/10 07:10:10;;;;;;;34.33;28.60;;;;;;;14.81;100.00;100876.19;5289176;28;20043;-79
2023/05/10 07:12:42;;;;;;;33.90;27.27;;;;;;;14.85;100.00;100889.00;5289558;28;20028;-80
2023/05/10 07:15:13;;;;;;;34.53;27.10;;;;;;;14.87;100.00;100899.47;5289873;28;20028;-81
2023/05/10 07:17:45;;;;;;;33.13;25.30;;;;;;;14.68;100.00;100879.75;5290451;28;20375;-80
2023/05/10 07:20:16;;;;;;;32.63;25.20;;;;;;;14.88;100.00;100899.34;5284558;28;20537;-81
2023/05/10 07:22:48;;;;;;;34.43;27.33;;;;;;;14.85;100.00;100888.19;5289719;28;20058;-82
2023/05/10 07:25:22;;;;;;;38.10;26.13;;;;;;;15.08;100.00;100909.28;5287290;28;20054;-80
2023/05/10 07:27:53;;;;;;;;;;;;;;;15.75;100.00;100938.34;5286352;28;20129;-80
2023/05/10 07:30:25;;;;;;;29.17;21.80;;;;;;;15.06;100.00;100925.22;5285256;28;19915;-80
2023/05/10 07:32:56;;;;;;;24.63;20.37;;;;;;;14.84;100.00;100904.94;5288222;28;20047;-80
2023/05/10 07:35:28;;;;;;;23.30;20.43;;;;;;;15.20;100.00;100952.34;5291945;28;20219;-82
2023/05/10 07:37:59;;;;;;;28.67;20.13;;;;;;;15.01;100.00;100924.72;5309770;28;20024;-82
2023/05/10 07:40:31;;;;;;;25.70;19.90;;;;;;;14.93;100.00;100912.16;5290208;28;20144;-81
2023/05/10 07:43:06;;;;;;;29.13;21.17;;;;;;;15.08;100.00;100933.03;5280490;28;20028;-80
2023/05/10 07:45:37;;;;;;;24.00;17.90;;;;;;;15.11;100.00;100940.69;5278103;28;20503;-82
2023/05/10 07:48:09;;;;;;;21.30;15.87;;;;;;;15.00;100.00;100908.09;5288838;28;20032;-82
2023/05/10 07:50:43;;;;;;;19.80;13.47;;;;;;;15.05;100.00;100923.53;5290536;28;20115;-82
2023/05/10 07:53:14;;;;;;;17.02;13.57;;;;;;;15.11;100.00;100936.25;5285801;28;20012;-83
2023/05/10 07:55:58;;;;;;;16.70;12.90;;;;;;;15.19;100.00;100908.44;5285099;28;21081;-81
2023/05/10 07:58:29;;;;;;;22.83;13.83;;;;;;;15.09;100.00;100926.78;5288826;28;20735;-80
2023/05/10 08:01:01;;;;;;;15.40;10.83;;;;;;;15.14;100.00;100948.38;5288382;28;20297;-80
2023/05/10 08:03:32;;;;;;;17.33;11.47;;;;;;;15.14;100.00;100961.56;5287108;28;20146;-80
2023/05/10 08:06:10;;;;;;;14.17;11.30;;;;;;;15.35;100.00;100971.41;5308640;28;20101;-80
2023/05/10 08:08:42;;;;;;;13.47;10.90;;;;;;;14.94;100.00;100942.84;5286837;28;20081;-83
2023/05/10 08:11:13;;;;;;;14.70;11.10;;;;;;;15.11;100.00;100977.63;5289412;28;20594;-80
2023/05/10 08:13:45;;;;;;;18.27;11.67;;;;;;;15.10;100.00;100965.38;5291359;28;20506;-81
2023/05/10 08:16:17;;;;;;;14.40;11.13;;;;;;;14.94;100.00;100937.56;5289669;28;20056;-81
2023/05/10 08:18:50;;;;;;;13.83;10.63;;;;;;;15.05;100.00;100943.81;5290070;28;20150;-81
2023/05/10 08:21:21;;;;;;;14.53;11.37;;;;;;;14.94;100.00;100932.28;5287344;28;20077;-81
2023/05/10 08:23:55;;;;;;;16.23;11.43;;;;;;;15.18;100.00;100957.75;5289453;28;20071;-81
2023/05/10 08:26:26;;;;;;;15.82;11.00;;;;;;;15.08;100.00;100939.13;5290171;28;20028;-81
2023/05/10 08:28:58;;;;;;;14.27;10.00;;;;;;;15.46;100.00;100995.13;5288139;28;20031;-80
2023/05/10 08:31:29;;;;;;;14.30;8.53;;;;;;;15.66;100.00;100992.72;5295942;28;20012;-81
2023/05/10 08:34:01;;;;;;;13.00;8.63;;;;;;;15.52;100.00;100991.19;5294633;28;20023;-80
2023/05/10 08:36:32;;;;;;;14.67;8.80;;;;;;;15.51;100.00;100975.47;5296623;28;20040;-80
2023/05/10 08:39:07;;;;;;;12.63;9.47;;;;;;;15.53;100.00;100984.09;5296582;28;20047;-79
2023/05/10 08:41:39;;;;;;;;;;;;;;;16.30;100.00;100997.41;5297025;28;20028;-80
2023/05/10 08:44:10;;;;;;;15.23;8.53;;;;;;;15.85;100.00;101000.03;5295505;28;20256;-80
2023/05/10 08:46:46;;;;;;;13.13;7.63;;;;;;;15.87;100.00;100962.06;5296046;28;20031;-80
2023/05/10 08:49:19;;;;;;;13.03;7.00;;;;;;;15.75;100.00;100961.25;5291441;28;20085;-78
2023/05/10 08:51:55;;;;;;;11.10;6.57;;;;;;;15.97;100.00;100982.34;5286433;28;20027;-76
2023/05/10 08:54:26;;;;;;;10.13;5.87;;;;;;;16.13;100.00;100982.94;5275764;28;20790;-79
2023/05/10 08:56:58;;;;;;;9.77;6.30;;;;;;;16.35;100.00;100976.72;5274971;28;20028;-78
2023/05/10 08:59:29;;;;;;;5.27;4.47;;;;;;;17.04;100.00;100960.44;5275111;28;20027;-79
2023/05/10 09:02:01;;;;;;;7.43;5.17;;;;;;;17.27;100.00;100970.91;5284713;28;20032;-77
2023/05/10 09:04:33;;;;;;;7.53;5.47;;;;;;;17.64;100.00;100991.53;5284230;28;20613;-79
2023/05/10 09:07:06;;;;;;;6.27;4.87;;;;;;;17.77;100.00;100985.13;5285171;28;20024;-79
2023/05/10 09:09:37;;;;;;;5.50;4.30;;;;;;;17.81;100.00;100997.13;5283720;28;20437;-78
2023/05/10 09:12:11;;;;;;;9.80;4.87;;;;;;;18.29;100.00;100991.22;5282446;28;20044;-78
2023/05/10 09:14:44;;;;;;;7.22;4.30;;;;;;;18.70;100.00;100980.44;5285110;28;20067;-79
2023/05/10 09:17:16;;;;;;;6.87;4.30;;;;;;;18.98;100.00;100983.16;5285262;28;20451;-79
2023/05/10 09:19:47;;;;;;;6.03;4.13;;;;;;;18.65;100.00;100982.66;5283706;28;20042;-79
2023/05/10 09:22:18;;;;;;;5.17;4.07;;;;;;;18.72;100.00;100976.66;5284350;28;20032;-77
2023/05/10 09:25:07;;;;;;;5.67;4.00;;;;;;;19.22;100.00;100995.13;5282806;28;20036;-77
2023/05/10 09:27:40;;;;;;;8.07;4.70;;;;;;;18.82;100.00;100973.13;5285744;28;20054;-78
2023/05/10 09:30:24;;;;;;;7.10;4.23;;;;;;;18.97;100.00;101010.69;5284119;28;20043;-78
2023/05/10 09:32:57;;;;;;;4.73;4.07;;;;;;;18.57;100.00;100997.47;5280829;28;20173;-76
2023/05/10 09:35:32;;;;;;;6.97;4.13;;;;;;;18.25;100.00;100953.53;5283820;28;20024;-77
2023/05/10 09:38:04;;;;;;;5.82;3.72;;;;;;;18.57;100.00;100994.00;5285637;28;20176;-76
2023/05/10 09:40:36;;;;;;;6.57;4.33;;;;;;;18.73;100.00;101012.81;5284345;28;20043;-76
2023/05/10 09:43:08;;;;;;;9.70;5.20;;;;;;;18.48;100.00;100969.97;5281880;28;20391;-77
2023/05/10 09:45:41;;;;;;;6.90;5.33;;;;;;;18.32;100.00;100981.19;5283637;28;20070;-75
2023/05/10 09:48:12;;;;;;;7.57;4.83;;;;;;;18.36;100.00;101002.94;5284098;28;20376;-75
2023/05/10 09:50:43;;;;;;;5.60;4.47;;;;;;;18.44;100.00;101018.13;5285693;28;20047;-75
2023/05/10 09:53:16;;;;;;;7.73;4.83;;;;;;;18.23;100.00;101022.59;5284386;28;20036;-75
2023/05/10 09:55:49;;;;;;;8.13;5.27;;;;;;;18.14;100.00;101036.69;5284008;28;20394;-75
2023/05/10 09:58:20;;;;;;;7.00;4.50;;;;;;;17.78;100.00;100992.09;5284180;28;20042;-76
2023/05/10 10:00:53;;;;;;;5.73;4.90;;;;;;;17.77;100.00;101025.69;5284310;28;20024;-76
2023/05/10 10:03:25;;;;;;;7.50;4.93;;;;;;;17.86;100.00;101045.25;5282855;28;20594;-76
2023/05/10 10:05:56;;;;;;;7.93;4.77;;;;;;;17.62;100.00;101016.44;5283741;28;20032;-75
2023/05/10 10:08:27;;;;;;;5.80;3.23;;;;;;;17.61;100.00;101023.53;5285252;28;20035;-75
2023/05/10 10:10:59;;;;;;;4.73;3.23;;;;;;;17.43;100.00;100996.88;5287200;28;20123;-75
2023/05/10 10:13:31;;;;;;;5.40;3.70;;;;;;;17.47;100.00;101010.69;5289044;28;20139;-75
2023/05/10 10:16:03;;;;;;;5.77;3.83;;;;;;;17.65;100.00;101040.84;5288578;28;20019;-74
2023/05/10 10:18:38;;;;;;;6.20;3.93;;;;;;;17.51;100.00;101043.84;5287206;28;20051;-75
2023/05/10 10:21:10;;;;;;;6.40;3.67;;;;;;;17.40;100.00;101021.78;5288433;28;20028;-76
2023/05/10 10:23:43;;;;;;;6.33;3.27;;;;;;;17.31;100.00;101006.72;5288529;28;20020;-75
2023/05/10 10:26:15;;;;;;;6.10;3.30;;;;;;;17.58;100.00;101015.03;5288743;28;20028;-76
2023/05/10 10:29:08;;;;;;;6.13;3.37;;;;;;;17.96;100.00;101050.56;5288478;28;21138;-76
2023/05/10 10:31:59;;;;;;;6.00;4.63;;;;;;;18.22;100.00;101028.06;5286948;28;20717;-76
2023/05/10 10:34:31;;;;;;;7.30;5.27;;;;;;;18.03;100.00;101032.28;5288437;28;20028;-76
2023/05/10 10:37:06;;;;;;;8.17;5.50;;;;;;;18.09;100.00;101013.22;5288662;28;20052;-76
2023/05/10 10:39:38;;;;;;;6.73;4.97;;;;;;;18.13;100.00;100993.41;5287400;28;20036;-76
2023/05/10 10:42:09;;;;;;;6.50;4.97;;;;;;;18.44;100.00;101004.88;5287748;28;20525;-75
2023/05/10 10:44:41;;;;;;;5.40;4.27;;;;;;;18.40;100.00;101006.16;5288027;28;20142;-76
2023/05/10 10:47:18;;;;;;;5.77;4.80;;;;;;;18.52;100.00;101023.56;5287199;28;20098;-76
2023/05/10 10:50:04;;;;;;;5.77;5.03;;;;;;;18.65;100.00;100995.94;5283073;28;20040;-76
2023/05/10 10:52:42;;;;;;;5.83;5.23;;;;;;;18.76;100.00;101040.88;5285594;28;20054;-76
2023/05/10 10:55:18;;;;;;;6.40;5.80;;;;;;;18.56;100.00;101040.88;5287290;28;20107;-76
2023/05/10 10:57:54;;;;;;;8.20;5.20;;;;;;;18.21;100.00;101021.06;5288977;28;20114;-76
2023/05/10 11:00:31;;;;;;;6.37;4.27;;;;;;;18.26;100.00;101019.66;5292162;28;20027;-75
2023/05/10 11:03:08;;;;;;;6.97;4.80;;;;;;;18.32;100.00;101039.50;5284628;28;20024;-76
2023/05/10 11:05:42;;;;;;;9.10;4.83;;;;;;;18.37;100.00;101050.53;5287025;28;20046;-76
2023/05/10 11:08:29;;;;;;;6.30;4.93;;;;;;;18.47;100.00;101041.72;5287805;28;20020;-76
2023/05/10 11:11:03;;;;;;;7.00;5.60;;;;;;;18.90;100.00;101042.28;5287794;28;20050;-77
2023/05/10 11:13:38;;;;;;;9.23;7.03;;;;;;;18.82;100.00;100991.72;5287850;28;20036;-77
2023/05/10 11:16:18;;;;;;;10.60;9.50;;;;;;;19.09;100.00;101035.25;5288164;28;20040;-76
2023/05/10 11:19:03;;;;;;;12.30;11.10;;;;;;;19.19;100.00;101048.50;5284752;28;20023;-77
2023/05/10 11:21:45;;;;;;;12.02;10.80;;;;;;;19.22;100.00;101050.88;5286051;28;20067;-77
2023/05/10 11:24:22;;;;;;;13.03;11.83;;;;;;;19.03;100.00;101051.72;5286721;28;20051;-77
2023/05/10 11:26:54;;;;;;;13.20;11.27;;;;;;;18.67;100.00;101047.03;5285341;28;20043;-75
2023/05/10 11:29:26;;;;;;;12.80;11.13;;;;;;;18.62;100.00;101045.63;5287462;28;20281;-76
2023/05/10 11:31:59;;;;;;;13.80;11.43;;;;;;;18.64;100.00;101053.44;5285083;28;20119;-76
2023/05/10 11:34:34;;;;;;;12.63;11.33;;;;;;;18.52;100.00;101034.19;5282105;28;20039;-76
2023/05/10 11:37:06;;;;;;;11.67;9.27;;;;;;;18.33;100.00;101017.31;5273744;28;20031;-76